createdAt,value
2022-10-19T00:01:28.637Z,17.67
2022-10-19T00:03:56.054Z,19.73
2022-10-19T00:06:26.198Z,18.73
2022-10-19T00:08:54.375Z,19.52
2022-10-19T00:11:21.334Z,17.40
2022-10-19T00:13:47.804Z,16.30
2022-10-19T00:16:16.215Z,17.17
2022-10-19T00:18:43.663Z,18.85
2022-10-19T00:21:11.983Z,18.00
2022-10-19T00:23:38.521Z,21.20
2022-10-19T00:26:05.039Z,20.25
2022-10-19T00:28:31.494Z,19.23
2022-10-19T00:31:03.037Z,19.42
2022-10-19T00:33:29.412Z,20.02
2022-10-19T00:35:55.832Z,18.80
2022-10-19T00:38:22.287Z,23.80
2022-10-19T00:40:49.312Z,27.67
2022-10-19T00:43:16.874Z,30.50
2022-10-19T00:45:43.270Z,25.35
2022-10-19T00:48:13.191Z,24.25
2022-10-19T00:50:40.776Z,24.65
2022-10-19T00:53:07.198Z,24.70
2022-10-19T00:55:34.552Z,24.98
2022-10-19T00:58:03.285Z,24.52
2022-10-19T01:00:29.848Z,21.17
2022-10-19T01:02:58.763Z,18.88
2022-10-19T01:05:26.382Z,23.17
2022-10-19T01:07:53.842Z,20.00
2022-10-19T01:10:30.291Z,16.77
2022-10-19T01:13:21.305Z,18.65
2022-10-19T01:15:59.520Z,19.15
2022-10-19T01:18:48.121Z,20.63
2022-10-19T01:21:21.622Z,24.35
2022-10-19T01:24:01.722Z,23.33
2022-10-19T01:26:47.529Z,22.52
2022-10-19T01:29:44.920Z,24.45
2022-10-19T01:32:28.983Z,24.40
2022-10-19T01:35:06.668Z,21.67
2022-10-19T01:37:51.860Z,22.13
2022-10-19T01:40:30.580Z,18.55
2022-10-19T01:43:37.747Z,20.15
2022-10-19T01:46:31.559Z,19.60
2022-10-19T01:49:09.260Z,20.50
2022-10-19T01:51:42.336Z,23.90
2022-10-19T01:54:12.733Z,25.08
2022-10-19T01:56:42.577Z,20.42
2022-10-19T01:59:11.836Z,21.35
2022-10-19T02:01:43.833Z,22.58
2022-10-19T02:04:12.980Z,19.58
2022-10-19T02:06:40.851Z,17.13
2022-10-19T02:09:07.409Z,18.45
2022-10-19T02:11:35.491Z,17.95
2022-10-19T02:14:09.518Z,18.33
2022-10-19T02:16:45.797Z,19.17
2022-10-19T02:19:15.494Z,20.83
2022-10-19T02:21:42.007Z,18.38
2022-10-19T02:24:08.470Z,17.88
2022-10-19T02:26:35.023Z,16.80
2022-10-19T02:29:01.580Z,17.98
2022-10-19T02:31:27.958Z,17.92
2022-10-19T02:33:54.707Z,17.90
2022-10-19T02:36:21.479Z,20.83
2022-10-19T02:38:48.024Z,20.08
2022-10-19T02:41:24.383Z,20.67
2022-10-19T02:43:58.900Z,19.05
2022-10-19T02:46:35.295Z,21.42
2022-10-19T02:49:04.440Z,18.25
2022-10-19T02:51:33.749Z,17.80
2022-10-19T02:54:02.712Z,18.63
2022-10-19T02:56:32.243Z,21.52
2022-10-19T02:58:58.595Z,19.52
2022-10-19T03:01:25.099Z,21.40
2022-10-19T03:03:51.433Z,21.77
2022-10-19T03:06:17.750Z,22.38
2022-10-19T03:08:44.382Z,22.42
2022-10-19T03:11:10.727Z,27.17
2022-10-19T03:13:37.149Z,28.90
2022-10-19T03:16:12.224Z,29.75
2022-10-19T03:18:38.687Z,28.85
2022-10-19T03:21:08.460Z,30.95
2022-10-19T03:23:35.502Z,30.40
2022-10-19T03:26:02.377Z,29.52
2022-10-19T03:28:28.962Z,29.75
2022-10-19T03:30:55.807Z,25.58
2022-10-19T03:33:22.697Z,25.92
2022-10-19T03:35:49.201Z,24.35
2022-10-19T03:38:15.878Z,27.27
2022-10-19T03:40:42.492Z,23.83
2022-10-19T03:43:08.836Z,19.70
2022-10-19T03:45:35.198Z,21.42
2022-10-19T03:48:01.587Z,20.73
2022-10-19T03:50:27.946Z,21.40
2022-10-19T03:52:55.437Z,23.05
2022-10-19T03:55:21.790Z,20.38
2022-10-19T03:57:48.118Z,24.50
2022-10-19T04:00:14.841Z,24.17
2022-10-19T04:02:41.153Z,28.58
2022-10-19T04:05:07.886Z,28.77
2022-10-19T04:07:34.491Z,28.73
2022-10-19T04:10:01.043Z,26.05
2022-10-19T04:12:27.356Z,26.65
2022-10-19T04:14:57.407Z,26.10
2022-10-19T04:17:24.849Z,28.15
2022-10-19T04:19:51.184Z,26.55
2022-10-19T04:22:17.544Z,27.90
2022-10-19T04:24:43.886Z,29.25
2022-10-19T04:27:10.196Z,29.95
2022-10-19T04:29:36.599Z,28.48
2022-10-19T04:32:02.939Z,28.02
2022-10-19T04:34:29.264Z,28.20
2022-10-19T04:36:59.121Z,27.15
2022-10-19T04:39:25.433Z,26.85
2022-10-19T04:41:51.735Z,28.02
2022-10-19T04:44:18.099Z,28.10
2022-10-19T04:46:44.452Z,33.22
2022-10-19T04:49:10.776Z,32.00
2022-10-19T04:51:37.111Z,30.17
2022-10-19T04:54:03.834Z,31.80
2022-10-19T04:56:32.141Z,30.50
2022-10-19T04:59:00.079Z,33.75
2022-10-19T05:01:28.525Z,29.60
2022-10-19T05:04:00.769Z,29.17
2022-10-19T05:06:27.516Z,29.67
2022-10-19T05:08:53.859Z,27.90
2022-10-19T05:11:20.862Z,30.35
2022-10-19T05:13:47.619Z,27.75
2022-10-19T05:16:17.720Z,28.98
2022-10-19T05:18:50.883Z,29.10
2022-10-19T05:21:18.168Z,30.00
2022-10-19T05:23:44.865Z,29.55
2022-10-19T05:26:14.466Z,29.20
2022-10-19T05:28:41.182Z,29.50
2022-10-19T05:31:12.864Z,29.75
2022-10-19T05:33:40.152Z,27.00
2022-10-19T05:36:29.489Z,28.08
2022-10-19T05:38:57.731Z,27.58
2022-10-19T05:41:26.230Z,28.70
2022-10-19T05:43:57.677Z,30.25
2022-10-19T05:46:24.970Z,28.48
2022-10-19T05:48:51.556Z,31.05
2022-10-19T05:51:20.555Z,28.13
2022-10-19T05:53:47.156Z,28.90
2022-10-19T05:56:17.862Z,30.38
2022-10-19T05:58:44.566Z,27.33
2022-10-19T06:01:11.055Z,30.67
2022-10-19T06:03:37.381Z,27.48
2022-10-19T06:06:06.214Z,28.33
2022-10-19T06:08:33.672Z,30.30
2022-10-19T06:11:09.932Z,28.52
2022-10-19T06:13:37.191Z,28.13
2022-10-19T06:16:04.537Z,29.27
2022-10-19T06:18:31.005Z,28.20
2022-10-19T06:21:02.371Z,28.60
2022-10-19T06:23:28.714Z,31.30
2022-10-19T06:25:55.256Z,33.05
2022-10-19T06:28:21.558Z,29.52
2022-10-19T06:30:47.906Z,29.42
2022-10-19T06:33:14.442Z,28.88
2022-10-19T06:35:42.897Z,28.60
2022-10-19T06:38:09.717Z,28.48
2022-10-19T06:40:36.226Z,30.70
2022-10-19T06:43:02.584Z,30.10
2022-10-19T06:45:32.270Z,31.05
2022-10-19T06:48:05.020Z,31.63
2022-10-19T06:50:34.217Z,33.90
2022-10-19T06:53:00.599Z,32.75
2022-10-19T06:55:27.016Z,33.63
2022-10-19T06:57:53.384Z,30.95
2022-10-19T07:00:19.735Z,34.80
2022-10-19T07:02:46.082Z,33.42
2022-10-19T07:05:12.399Z,33.90
2022-10-19T07:07:38.860Z,35.03
2022-10-19T07:10:05.722Z,34.72
2022-10-19T07:12:32.144Z,36.65
2022-10-19T07:14:58.455Z,33.53
2022-10-19T07:17:24.921Z,33.50
2022-10-19T07:19:51.259Z,32.50
2022-10-19T07:22:22.174Z,34.20
2022-10-19T07:24:52.218Z,33.58
2022-10-19T07:27:18.653Z,30.17
2022-10-19T07:29:45.132Z,31.73
2022-10-19T07:32:11.444Z,31.27
2022-10-19T07:34:37.771Z,30.98
2022-10-19T07:37:04.131Z,30.65
2022-10-19T07:39:30.623Z,32.28
2022-10-19T07:41:56.981Z,32.22
2022-10-19T07:44:23.453Z,32.20
2022-10-19T07:46:50.289Z,33.13
2022-10-19T07:49:18.898Z,33.05
2022-10-19T07:51:46.732Z,31.08
2022-10-19T07:54:13.638Z,31.65
2022-10-19T07:56:40.125Z,31.83
2022-10-19T07:59:06.579Z,31.92
2022-10-19T08:01:37.903Z,31.90
2022-10-19T08:06:50.640Z,32.40
2022-10-19T08:09:40.043Z,31.77
2022-10-19T08:12:04.295Z,31.65
2022-10-19T08:14:30.758Z,30.73
2022-10-19T08:16:57.416Z,29.65
2022-10-19T08:19:24.208Z,28.63
2022-10-19T08:21:50.888Z,29.83
2022-10-19T08:24:19.751Z,28.75
2022-10-19T08:26:46.783Z,29.98
2022-10-19T08:29:16.265Z,29.70
2022-10-19T08:31:44.061Z,27.83
2022-10-19T08:34:11.327Z,26.95
2022-10-19T08:36:37.716Z,28.13
2022-10-19T08:39:06.096Z,30.75
2022-10-19T08:41:44.920Z,27.17
2022-10-19T08:44:33.059Z,28.08
2022-10-19T08:47:12.512Z,28.33
2022-10-19T08:49:41.574Z,30.63
2022-10-19T08:52:16.245Z,28.90
2022-10-19T08:54:56.447Z,28.95
2022-10-19T08:57:41.271Z,28.50
2022-10-19T09:00:28.425Z,32.67
2022-10-19T09:03:13.573Z,31.52
2022-10-19T09:05:44.847Z,32.10
2022-10-19T09:08:17.448Z,29.45
2022-10-19T09:10:48.753Z,27.90
2022-10-19T09:13:21.101Z,28.13
2022-10-19T09:15:50.409Z,29.60
2022-10-19T09:18:21.421Z,29.38
2022-10-19T09:20:53.875Z,31.13
2022-10-19T09:23:27.409Z,33.10
2022-10-19T09:25:55.583Z,34.75
2022-10-19T09:28:44.792Z,34.40
2022-10-19T09:31:18.046Z,35.60
2022-10-19T09:33:50.049Z,35.10
2022-10-19T09:36:22.916Z,35.72
2022-10-19T09:38:54.190Z,35.67
2022-10-19T09:41:22.479Z,35.50
2022-10-19T09:43:54.406Z,34.50
2022-10-19T09:46:52.044Z,33.55
2022-10-19T09:49:20.198Z,28.10
2022-10-19T09:51:53.059Z,24.58
2022-10-19T09:54:26.039Z,25.67
2022-10-19T09:56:54.786Z,26.67
2022-10-19T09:59:24.208Z,24.77
2022-10-19T10:02:06.131Z,26.98
2022-10-19T10:04:36.273Z,22.58
2022-10-19T10:07:03.951Z,24.92
2022-10-19T10:09:30.472Z,31.45
2022-10-19T10:11:59.920Z,30.75
2022-10-19T10:14:33.409Z,17.45
2022-10-19T10:17:06.601Z,16.77
2022-10-19T10:19:35.973Z,18.08
2022-10-19T10:22:03.851Z,13.75
2022-10-19T10:24:32.799Z,13.32
2022-10-19T10:27:06.371Z,15.25
2022-10-19T10:29:35.794Z,15.10
2022-10-19T10:32:07.968Z,16.40
2022-10-19T10:34:50.593Z,16.70
2022-10-19T10:37:22.897Z,15.85
2022-10-19T10:39:55.143Z,13.63
2022-10-19T10:42:30.051Z,15.65
2022-10-19T10:44:57.472Z,16.60
2022-10-19T10:47:27.007Z,14.90
2022-10-19T10:50:06.383Z,14.60
2022-10-19T10:52:34.548Z,13.77
2022-10-19T10:55:21.341Z,14.90
2022-10-19T10:57:51.755Z,20.00
2022-10-19T11:00:23.976Z,24.70
2022-10-19T11:03:09.162Z,26.27
2022-10-19T11:05:46.135Z,32.33
2022-10-19T11:08:12.421Z,25.90
2022-10-19T11:11:04.556Z,27.73
2022-10-19T11:13:39.467Z,27.38
2022-10-19T11:16:33.594Z,23.85
2022-10-19T11:19:10.831Z,28.13
2022-10-19T11:21:50.146Z,27.45
2022-10-19T11:24:21.242Z,29.13
2022-10-19T11:27:17.818Z,28.10
2022-10-19T11:30:16.434Z,19.55
2022-10-19T11:33:00.145Z,25.67
2022-10-19T11:35:42.027Z,21.85
2022-10-19T11:38:33.289Z,15.88
2022-10-19T11:41:18.928Z,15.60
2022-10-19T11:44:07.352Z,15.75
2022-10-19T11:46:51.782Z,15.63
2022-10-19T11:49:39.898Z,15.88
2022-10-19T11:52:55.370Z,15.57
2022-10-19T11:55:45.866Z,14.23
2022-10-19T11:58:34.597Z,14.27
2022-10-19T12:01:21.978Z,13.55
2022-10-19T12:04:02.858Z,14.55
2022-10-19T12:06:47.970Z,13.35
2022-10-19T12:09:32.584Z,14.45
2022-10-19T12:12:25.832Z,14.18
2022-10-19T12:15:00.924Z,13.52
2022-10-19T12:17:31.379Z,14.57
2022-10-19T12:20:06.417Z,12.93
2022-10-19T12:22:37.302Z,13.55
2022-10-19T12:25:04.247Z,12.50
2022-10-19T12:27:36.214Z,13.48
2022-10-19T12:30:23.678Z,13.88
2022-10-19T12:33:05.983Z,13.70
2022-10-19T12:35:45.953Z,14.52
2022-10-19T12:38:33.446Z,11.25
2022-10-19T12:41:07.177Z,9.55
2022-10-19T12:43:43.562Z,9.70
2022-10-19T12:46:37.162Z,9.95
2022-10-19T12:49:31.206Z,8.07
2022-10-19T12:52:01.619Z,7.95
2022-10-19T12:54:40.747Z,8.63
2022-10-19T12:57:27.093Z,8.48
2022-10-19T13:00:00.463Z,9.27
2022-10-19T13:05:04.609Z,8.45
2022-10-19T13:07:35.490Z,9.00
2022-10-19T13:10:07.045Z,8.73
2022-10-19T13:12:44.219Z,11.18
2022-10-19T13:15:35.678Z,12.70
2022-10-19T13:18:03.912Z,12.13
2022-10-19T13:20:30.206Z,11.07
2022-10-19T13:22:59.665Z,12.02
2022-10-19T13:25:32.686Z,13.55
2022-10-19T13:28:12.586Z,12.05
2022-10-19T13:30:38.962Z,12.82
2022-10-19T13:33:30.136Z,10.48
2022-10-19T13:35:59.423Z,11.48
2022-10-19T13:38:26.325Z,11.30
2022-10-19T13:40:52.725Z,12.27
2022-10-19T13:43:28.492Z,11.23
2022-10-19T13:46:07.909Z,9.25
2022-10-19T13:49:11.058Z,9.52
2022-10-19T13:52:04.949Z,10.40
2022-10-19T13:54:51.534Z,11.73
2022-10-19T13:57:20.895Z,11.10
2022-10-19T14:00:19.936Z,10.25
2022-10-19T14:03:10.818Z,9.15
2022-10-19T14:05:53.603Z,9.50
2022-10-19T14:08:43.230Z,9.93
2022-10-19T14:11:17.158Z,11.95
2022-10-19T14:13:43.804Z,9.85
2022-10-19T14:16:21.888Z,9.88
2022-10-19T14:18:55.912Z,10.15
2022-10-19T14:21:36.870Z,10.80
2022-10-19T14:24:19.365Z,10.95
2022-10-19T14:26:46.595Z,10.63
2022-10-19T14:29:13.627Z,11.07
2022-10-19T14:31:40.111Z,11.63
2022-10-19T14:34:09.325Z,11.57
2022-10-19T14:36:43.880Z,12.38
2022-10-19T14:39:29.313Z,12.32
2022-10-19T14:41:55.991Z,10.30
2022-10-19T14:44:39.518Z,11.85
2022-10-19T14:47:21.774Z,13.52
2022-10-19T14:49:48.471Z,11.80
2022-10-19T14:52:32.616Z,13.23
2022-10-19T14:55:01.804Z,15.13
2022-10-19T14:57:37.195Z,11.93
2022-10-19T15:00:13.994Z,12.13
2022-10-19T15:02:45.223Z,12.60
2022-10-19T15:05:20.872Z,12.10
2022-10-19T15:07:48.232Z,15.15
2022-10-19T15:10:21.607Z,10.10
2022-10-19T15:12:50.322Z,10.68
2022-10-19T15:15:22.564Z,10.77
2022-10-19T15:17:53.885Z,12.38
2022-10-19T15:20:49.154Z,10.43
2022-10-19T15:23:43.732Z,10.32
2022-10-19T15:26:18.527Z,11.13
2022-10-19T15:28:45.388Z,10.65
2022-10-19T15:31:25.526Z,9.90
2022-10-19T15:33:58.873Z,10.02
2022-10-19T15:36:26.514Z,11.85
2022-10-19T15:39:06.413Z,10.80
2022-10-19T15:41:44.818Z,9.90
2022-10-19T15:44:39.956Z,9.40
2022-10-19T15:47:19.393Z,9.90
2022-10-19T15:49:45.784Z,8.40
2022-10-19T15:52:16.290Z,8.82
2022-10-19T15:54:42.985Z,8.45
2022-10-19T15:57:26.215Z,9.93
2022-10-19T15:59:53.698Z,10.77
2022-10-19T16:02:20.061Z,8.23
2022-10-19T16:04:46.475Z,8.02
2022-10-19T16:07:24.070Z,9.07
2022-10-19T16:09:50.382Z,8.95
2022-10-19T16:12:16.707Z,9.00
2022-10-19T16:14:43.002Z,10.27
2022-10-19T16:17:13.003Z,10.13
2022-10-19T16:19:39.333Z,10.35
2022-10-19T16:22:05.977Z,10.95
2022-10-19T16:24:32.444Z,10.88
2022-10-19T16:26:58.785Z,10.65
2022-10-19T16:29:28.234Z,10.38
2022-10-19T16:31:55.589Z,9.15
2022-10-19T16:34:21.964Z,9.48
2022-10-19T16:36:48.439Z,9.77
2022-10-19T16:39:14.761Z,8.82
2022-10-19T16:41:41.085Z,8.43
2022-10-19T16:44:07.405Z,7.95
2022-10-19T16:46:33.771Z,7.43
2022-10-19T16:49:00.127Z,7.88
2022-10-19T16:51:28.921Z,8.65
2022-10-19T16:53:57.392Z,10.25
2022-10-19T16:56:26.300Z,9.23
2022-10-19T16:58:59.594Z,8.93
2022-10-19T17:01:26.651Z,8.95
2022-10-19T17:03:53.753Z,8.85
2022-10-19T17:06:20.282Z,8.85
2022-10-19T17:11:35.706Z,9.43
2022-10-19T17:14:05.937Z,11.48
2022-10-19T17:16:33.955Z,13.05
2022-10-19T17:19:01.739Z,13.10
2022-10-19T17:21:31.744Z,19.42
2022-10-19T17:24:00.745Z,16.50
2022-10-19T17:26:29.654Z,12.30
2022-10-19T17:28:57.095Z,13.82
2022-10-19T17:31:23.676Z,17.50
2022-10-19T17:33:50.229Z,14.52
2022-10-19T17:36:20.991Z,15.02
2022-10-19T17:38:47.778Z,14.15
2022-10-19T17:41:19.775Z,16.13
2022-10-19T17:43:47.151Z,16.17
2022-10-19T17:46:16.562Z,17.70
2022-10-19T17:48:44.244Z,18.48
2022-10-19T17:51:15.958Z,18.08
2022-10-19T17:53:46.473Z,17.40
2022-10-19T17:56:16.235Z,17.25
2022-10-19T17:58:42.584Z,18.98
2022-10-19T18:01:10.139Z,18.35
2022-10-19T18:03:38.421Z,21.77
2022-10-19T18:06:10.688Z,21.42
2022-10-19T18:08:39.845Z,21.95
2022-10-19T18:11:08.919Z,20.85
2022-10-19T18:16:14.522Z,19.00
2022-10-19T18:18:43.208Z,19.40
2022-10-19T18:21:12.679Z,19.60
2022-10-19T18:23:39.912Z,19.67
2022-10-19T18:26:13.323Z,20.08
2022-10-19T18:28:40.475Z,18.57
2022-10-19T18:31:13.153Z,18.80
2022-10-19T18:33:40.357Z,18.73
2022-10-19T18:36:10.043Z,17.73
2022-10-19T18:38:37.653Z,19.60
2022-10-19T18:41:11.627Z,19.00
2022-10-19T18:43:38.794Z,17.98
2022-10-19T18:46:05.514Z,16.27
2022-10-19T18:48:31.840Z,18.02
2022-10-19T18:51:02.577Z,18.20
2022-10-19T18:53:30.057Z,19.02
2022-10-19T18:56:04.510Z,18.38
2022-10-19T18:58:31.108Z,18.75
2022-10-19T19:01:16.214Z,16.98
2022-10-19T19:03:45.365Z,16.10
2022-10-19T19:06:19.577Z,17.45
2022-10-19T19:08:52.512Z,17.23
2022-10-19T19:11:21.518Z,19.45
2022-10-19T19:13:55.166Z,19.40
2022-10-19T19:16:22.464Z,20.55
2022-10-19T19:18:54.694Z,19.98
2022-10-19T19:21:23.783Z,21.00
2022-10-19T19:23:51.559Z,24.45
2022-10-19T19:26:18.926Z,24.15
2022-10-19T19:28:49.103Z,25.73
2022-10-19T19:31:18.563Z,23.63
2022-10-19T19:33:46.034Z,23.58
2022-10-19T19:36:13.975Z,27.38
2022-10-19T19:38:40.821Z,27.52
2022-10-19T19:41:09.260Z,27.42
2022-10-19T19:43:37.526Z,27.42
2022-10-19T19:46:09.281Z,30.13
2022-10-19T19:48:37.156Z,31.83
2022-10-19T19:51:03.983Z,30.67
2022-10-19T19:53:30.519Z,31.55
2022-10-19T19:55:56.913Z,32.88
2022-10-19T19:58:23.246Z,33.83
2022-10-19T20:00:49.558Z,33.67
2022-10-19T20:03:16.248Z,32.80
2022-10-19T20:05:42.757Z,35.38
2022-10-19T20:08:09.688Z,32.88
2022-10-19T20:10:41.430Z,32.63
2022-10-19T20:13:08.109Z,33.05
2022-10-19T20:15:38.546Z,32.47
2022-10-19T20:18:05.806Z,31.05
2022-10-19T20:20:32.126Z,31.30
2022-10-19T20:22:58.439Z,31.90
2022-10-19T20:25:24.738Z,29.75
2022-10-19T20:27:51.102Z,30.67
2022-10-19T20:30:17.617Z,30.17
2022-10-19T20:32:43.963Z,30.17
2022-10-19T20:35:10.387Z,32.70
2022-10-19T20:37:36.789Z,30.38
2022-10-19T20:40:08.531Z,29.73
2022-10-19T20:42:35.865Z,30.10
2022-10-19T20:45:02.641Z,28.88
2022-10-19T20:47:29.370Z,26.92
2022-10-19T20:49:55.701Z,26.50
2022-10-19T20:52:22.085Z,27.85
2022-10-19T20:54:49.192Z,25.90
2022-10-19T20:57:15.651Z,26.75
2022-10-19T20:59:43.702Z,24.75
2022-10-19T21:02:11.183Z,27.00
2022-10-19T21:04:37.570Z,24.50
2022-10-19T21:07:04.909Z,25.45
2022-10-19T21:09:31.641Z,25.48
2022-10-19T21:11:58.212Z,25.13
2022-10-19T21:14:28.603Z,23.00
2022-10-19T21:16:57.082Z,24.38
2022-10-19T21:19:26.844Z,24.13
2022-10-19T21:21:55.996Z,23.80
2022-10-19T21:24:25.306Z,25.50
2022-10-19T21:29:23.426Z,24.38
2022-10-19T21:31:52.122Z,23.70
2022-10-19T21:34:21.948Z,25.98
2022-10-19T21:36:48.691Z,25.45
2022-10-19T21:39:15.659Z,25.30
2022-10-19T21:41:42.247Z,23.50
2022-10-19T21:44:09.629Z,22.52
2022-10-19T21:46:36.034Z,26.63
2022-10-19T21:49:02.499Z,24.73
2022-10-19T21:51:34.570Z,25.63
2022-10-19T21:54:01.504Z,25.15
2022-10-19T21:56:28.677Z,27.15
2022-10-19T21:58:55.883Z,25.77
2022-10-19T22:01:25.790Z,25.48
2022-10-19T22:04:00.095Z,27.23
2022-10-19T22:06:29.157Z,28.00
2022-10-19T22:08:56.348Z,24.83
2022-10-19T22:11:23.090Z,24.25
2022-10-19T22:13:52.805Z,26.70
2022-10-19T22:16:20.586Z,26.67
2022-10-19T22:18:47.674Z,27.40
2022-10-19T22:21:18.349Z,26.77
2022-10-19T22:23:45.129Z,25.85
2022-10-19T22:26:23.645Z,25.80
2022-10-19T22:28:50.374Z,24.85
2022-10-19T22:31:16.957Z,25.70
2022-10-19T22:33:43.317Z,28.35
2022-10-19T22:36:11.759Z,27.85
2022-10-19T22:38:38.226Z,28.50
2022-10-19T22:41:04.574Z,27.30
2022-10-19T22:43:31.027Z,31.88
2022-10-19T22:45:57.358Z,32.60
2022-10-19T22:48:23.823Z,32.05
2022-10-19T22:50:52.975Z,30.33
2022-10-19T22:53:19.464Z,33.70
2022-10-19T22:55:45.829Z,32.00
2022-10-19T23:00:43.606Z,31.98
2022-10-19T23:03:09.967Z,33.08
2022-10-19T23:05:36.366Z,34.15
2022-10-19T23:08:02.828Z,33.10
2022-10-19T23:10:29.193Z,33.95
2022-10-19T23:12:55.559Z,33.15
2022-10-19T23:15:22.063Z,35.45
2022-10-19T23:17:48.413Z,34.08
2022-10-19T23:20:15.005Z,35.78
2022-10-19T23:22:41.446Z,37.70
2022-10-19T23:25:08.632Z,36.72
2022-10-19T23:27:35.308Z,37.78
2022-10-19T23:30:02.653Z,41.65
2022-10-19T23:32:28.999Z,38.67
2022-10-19T23:34:55.335Z,40.65
2022-10-19T23:37:21.714Z,40.47
2022-10-19T23:39:48.018Z,39.90
2022-10-19T23:42:14.413Z,41.47
2022-10-19T23:44:40.723Z,41.47
2022-10-19T23:47:07.025Z,41.45
2022-10-19T23:49:33.337Z,41.65
2022-10-19T23:51:59.954Z,40.85
2022-10-19T23:54:26.397Z,44.10
2022-10-19T23:56:52.697Z,44.10
2022-10-19T23:59:18.991Z,47.72
